createdAt,value
2019-03-22T00:00:21.128Z,10.24
2019-03-22T00:03:19.248Z,10.20
2019-03-22T00:06:01.995Z,10.13
2019-03-22T00:08:36.266Z,10.00
2019-03-22T00:11:10.664Z,9.98
2019-03-22T00:13:44.454Z,9.99
2019-03-22T00:16:27.595Z,10.01
2019-03-22T00:19:03.636Z,10.00
2019-03-22T00:21:38.011Z,10.07
2019-03-22T00:24:20.497Z,10.14
2019-03-22T00:26:56.028Z,10.13
2019-03-22T00:29:40.482Z,10.15
2019-03-22T00:32:14.504Z,10.03
2019-03-22T00:34:49.639Z,9.96
2019-03-22T00:37:23.695Z,10.00
2019-03-22T00:40:07.280Z,10.08
2019-03-22T00:42:42.190Z,10.12
2019-03-22T00:45:16.608Z,10.04
2019-03-22T00:47:50.681Z,10.08
2019-03-22T00:50:33.251Z,10.12
2019-03-22T00:53:07.337Z,10.07
2019-03-22T00:55:51.614Z,10.06
2019-03-22T00:58:25.844Z,9.96
2019-03-22T01:01:00.451Z,9.93
2019-03-22T01:03:34.601Z,9.87
2019-03-22T01:06:09.304Z,9.89
2019-03-22T01:08:43.677Z,10.03
2019-03-22T01:11:26.687Z,10.00
2019-03-22T01:14:13.230Z,9.97
2019-03-22T01:17:01.637Z,10.00
2019-03-22T01:19:38.566Z,9.99
2019-03-22T01:22:22.330Z,10.02
2019-03-22T01:24:56.846Z,9.92
2019-03-22T01:27:41.073Z,9.93
2019-03-22T01:30:16.317Z,9.83
2019-03-22T01:32:58.980Z,9.86
2019-03-22T01:35:32.768Z,9.85
2019-03-22T01:38:16.235Z,9.93
2019-03-22T01:40:50.328Z,9.88
2019-03-22T01:43:24.267Z,9.84
2019-03-22T01:46:07.501Z,9.75
2019-03-22T01:48:51.300Z,9.80
2019-03-22T01:51:25.353Z,9.77
2019-03-22T01:54:08.135Z,9.81
2019-03-22T01:56:51.420Z,9.77
2019-03-22T01:59:25.077Z,9.72
2019-03-22T02:01:59.156Z,9.84
2019-03-22T02:04:33.108Z,9.77
2019-03-22T02:07:07.482Z,9.77
2019-03-22T02:09:41.891Z,9.73
2019-03-22T02:12:15.937Z,9.77
2019-03-22T02:14:59.355Z,9.86
2019-03-22T02:17:33.014Z,9.87
2019-03-22T02:20:07.216Z,9.86
2019-03-22T02:22:41.017Z,9.84
2019-03-22T02:25:24.647Z,9.80
2019-03-22T02:28:04.033Z,9.77
2019-03-22T02:30:44.105Z,9.88
2019-03-22T02:33:18.431Z,9.82
2019-03-22T02:35:53.203Z,9.83
2019-03-22T02:38:27.499Z,9.81
2019-03-22T02:41:19.054Z,9.85
2019-03-22T02:43:54.924Z,9.82
2019-03-22T02:46:29.249Z,9.80
2019-03-22T02:49:19.294Z,9.85
2019-03-22T02:51:54.405Z,9.77
2019-03-22T02:54:28.446Z,9.77
2019-03-22T02:57:11.935Z,9.82
2019-03-22T02:59:46.186Z,9.74
2019-03-22T03:02:21.875Z,9.79
2019-03-22T03:05:04.638Z,9.88
2019-03-22T03:07:47.802Z,9.90
2019-03-22T03:10:30.107Z,9.99
2019-03-22T03:13:03.851Z,9.94
2019-03-22T03:15:47.210Z,9.95
2019-03-22T03:18:20.891Z,9.67
2019-03-22T03:20:55.591Z,9.69
2019-03-22T03:23:45.072Z,9.75
2019-03-22T03:26:20.701Z,9.61
2019-03-22T03:28:54.654Z,9.61
2019-03-22T03:31:28.734Z,9.63
2019-03-22T03:34:11.395Z,9.82
2019-03-22T03:37:04.371Z,9.71
2019-03-22T03:39:48.618Z,9.67
2019-03-22T03:42:31.519Z,9.70
2019-03-22T03:45:31.035Z,9.68
2019-03-22T03:48:05.568Z,9.58
2019-03-22T03:50:54.410Z,9.64
2019-03-22T03:53:40.285Z,9.59
2019-03-22T03:56:14.019Z,9.56
2019-03-22T03:58:52.759Z,9.54
2019-03-22T04:01:22.863Z,9.52
2019-03-22T04:03:57.525Z,9.50
2019-03-22T04:06:39.999Z,9.55
2019-03-22T04:09:24.746Z,9.60
2019-03-22T04:12:11.778Z,9.68
2019-03-22T04:14:55.570Z,9.62
2019-03-22T04:17:28.926Z,9.58
2019-03-22T04:20:03.222Z,9.53
2019-03-22T04:22:45.755Z,9.56
2019-03-22T04:25:20.223Z,9.55
2019-03-22T04:27:54.307Z,9.52
2019-03-22T04:30:28.590Z,9.47
2019-03-22T04:33:11.429Z,9.59
2019-03-22T04:36:01.142Z,9.47
2019-03-22T04:38:35.271Z,9.51
2019-03-22T04:41:19.350Z,9.62
2019-03-22T04:43:54.390Z,9.50
2019-03-22T04:46:29.293Z,9.42
2019-03-22T04:49:03.766Z,9.37
2019-03-22T04:51:47.759Z,9.35
2019-03-22T04:54:21.880Z,9.38
2019-03-22T04:57:10.880Z,9.41
2019-03-22T04:59:49.275Z,9.35
2019-03-22T05:02:23.222Z,9.14
2019-03-22T05:04:59.616Z,8.98
2019-03-22T05:07:34.857Z,8.91
2019-03-22T05:10:11.816Z,8.83
2019-03-22T05:12:47.043Z,8.67
2019-03-22T05:15:25.405Z,8.57
2019-03-22T05:18:01.117Z,8.50
2019-03-22T05:20:36.517Z,8.52
2019-03-22T05:23:22.653Z,8.41
2019-03-22T05:26:13.507Z,8.41
2019-03-22T05:28:59.721Z,8.42
2019-03-22T05:32:00.774Z,8.31
2019-03-22T05:34:36.108Z,8.19
2019-03-22T05:37:16.708Z,8.14
2019-03-22T05:39:59.897Z,8.05
2019-03-22T05:42:33.973Z,7.98
2019-03-22T05:45:08.068Z,7.89
2019-03-22T05:47:42.247Z,7.86
2019-03-22T05:50:24.766Z,7.97
2019-03-22T05:52:59.065Z,7.89
2019-03-22T05:55:33.167Z,7.92
2019-03-22T05:58:09.287Z,7.98
2019-03-22T06:00:43.516Z,8.01
2019-03-22T06:03:18.768Z,8.07
2019-03-22T06:05:52.834Z,8.04
2019-03-22T06:08:36.949Z,7.97
2019-03-22T06:11:10.621Z,7.90
2019-03-22T06:13:49.822Z,7.89
2019-03-22T06:16:25.370Z,7.87
2019-03-22T06:19:02.831Z,7.89
2019-03-22T06:21:37.560Z,7.85
2019-03-22T06:24:11.253Z,7.88
2019-03-22T06:26:45.930Z,7.91
2019-03-22T06:29:20.798Z,7.97
2019-03-22T06:32:12.948Z,8.05
2019-03-22T06:34:47.130Z,8.04
2019-03-22T06:37:21.976Z,8.02
2019-03-22T06:39:55.985Z,8.08
2019-03-22T06:42:30.174Z,8.03
2019-03-22T06:45:13.339Z,8.13
2019-03-22T06:48:01.941Z,8.11
2019-03-22T06:50:38.442Z,8.11
2019-03-22T06:53:12.523Z,8.16
2019-03-22T06:55:56.495Z,8.27
2019-03-22T06:58:34.787Z,8.27
2019-03-22T07:01:09.861Z,8.32
2019-03-22T07:03:43.565Z,8.38
2019-03-22T07:06:18.399Z,8.48
2019-03-22T07:08:52.738Z,8.59
2019-03-22T07:11:26.384Z,8.68
2019-03-22T07:14:00.361Z,8.72
2019-03-22T07:16:49.765Z,8.83
2019-03-22T07:19:23.616Z,8.88
2019-03-22T07:21:57.973Z,8.97
2019-03-22T07:24:40.806Z,9.14
2019-03-22T07:27:24.229Z,9.23
2019-03-22T07:29:59.003Z,9.29
2019-03-22T07:32:41.689Z,9.41
2019-03-22T07:35:26.630Z,9.42
2019-03-22T07:38:09.087Z,9.56
2019-03-22T07:40:44.466Z,9.57
2019-03-22T07:43:32.736Z,9.73
2019-03-22T07:46:07.756Z,9.77
2019-03-22T07:48:42.490Z,9.85
2019-03-22T07:51:29.853Z,9.93
2019-03-22T07:54:22.091Z,10.00
2019-03-22T07:57:05.531Z,10.09
2019-03-22T07:59:39.837Z,10.10
2019-03-22T08:02:13.600Z,10.20
2019-03-22T08:04:58.115Z,10.33
2019-03-22T08:07:40.799Z,10.41
2019-03-22T08:10:25.677Z,10.47
2019-03-22T08:13:00.863Z,10.50
2019-03-22T08:15:34.932Z,10.54
2019-03-22T08:18:17.449Z,10.69
2019-03-22T08:21:01.136Z,10.70
2019-03-22T08:23:34.862Z,10.65
2019-03-22T08:26:09.549Z,10.78
2019-03-22T08:28:42.938Z,10.91
2019-03-22T08:31:25.901Z,11.04
2019-03-22T08:34:09.748Z,11.15
2019-03-22T08:36:54.310Z,11.22
2019-03-22T08:39:28.815Z,11.26
2019-03-22T08:42:02.475Z,11.33
2019-03-22T08:44:36.900Z,11.41
2019-03-22T08:47:19.642Z,11.42
2019-03-22T08:49:55.194Z,11.41
2019-03-22T08:52:37.774Z,11.65
2019-03-22T08:55:30.043Z,11.63
2019-03-22T08:58:20.152Z,11.61
2019-03-22T09:00:57.834Z,11.64
2019-03-22T09:03:30.591Z,11.74
2019-03-22T09:06:04.230Z,11.78
2019-03-22T09:08:38.002Z,11.93
2019-03-22T09:11:20.782Z,12.08
2019-03-22T09:14:04.568Z,12.04
2019-03-22T09:16:39.145Z,12.04
2019-03-22T09:19:21.653Z,12.30
2019-03-22T09:21:56.168Z,12.26
2019-03-22T09:24:38.985Z,12.38
2019-03-22T09:27:06.750Z,12.29
2019-03-22T09:29:41.242Z,12.43
2019-03-22T09:32:23.861Z,12.60
2019-03-22T09:35:07.324Z,12.71
2019-03-22T09:37:41.357Z,12.71
2019-03-22T09:40:24.919Z,12.94
2019-03-22T09:43:00.205Z,12.92
2019-03-22T09:45:43.265Z,13.11
2019-03-22T09:48:17.963Z,13.06
2019-03-22T09:51:02.881Z,13.24
2019-03-22T09:53:38.384Z,13.12
2019-03-22T09:56:13.232Z,13.16
2019-03-22T09:58:46.877Z,13.29
2019-03-22T10:01:24.010Z,13.39
2019-03-22T10:03:56.592Z,13.40
2019-03-22T10:06:30.238Z,13.53
2019-03-22T10:09:13.765Z,13.69
2019-03-22T10:11:48.501Z,13.60
2019-03-22T10:14:31.811Z,13.70
2019-03-22T10:17:05.667Z,13.78
2019-03-22T10:19:42.176Z,13.73
2019-03-22T10:22:25.768Z,13.90
2019-03-22T10:24:59.824Z,14.03
2019-03-22T10:27:43.026Z,14.30
2019-03-22T10:30:18.082Z,14.32
2019-03-22T10:33:00.824Z,14.43
2019-03-22T10:35:44.222Z,14.59
2019-03-22T10:38:30.662Z,14.70
2019-03-22T10:40:53.552Z,14.78
2019-03-22T10:43:27.562Z,14.91
2019-03-22T10:46:10.410Z,14.91
2019-03-22T10:48:59.807Z,15.03
2019-03-22T10:51:34.254Z,15.10
2019-03-22T10:54:18.347Z,15.22
2019-03-22T10:56:52.435Z,15.37
2019-03-22T10:59:35.904Z,15.62
2019-03-22T11:02:10.398Z,15.68
2019-03-22T11:04:54.176Z,15.70
2019-03-22T11:07:28.227Z,15.83
2019-03-22T11:10:02.573Z,15.86
2019-03-22T11:12:36.364Z,15.84
2019-03-22T11:15:10.785Z,15.81
2019-03-22T11:17:53.955Z,16.08
2019-03-22T11:20:37.060Z,16.10
2019-03-22T11:23:10.834Z,16.25
2019-03-22T11:25:44.482Z,16.25
2019-03-22T11:28:18.144Z,16.19
2019-03-22T11:30:52.015Z,16.19
2019-03-22T11:33:26.928Z,16.29
2019-03-22T11:36:01.345Z,16.38
2019-03-22T11:38:35.556Z,16.44
2019-03-22T11:41:09.572Z,16.49
2019-03-22T11:43:43.253Z,16.53
2019-03-22T11:46:17.796Z,16.68
2019-03-22T11:48:52.306Z,16.79
2019-03-22T11:51:26.004Z,16.94
2019-03-22T11:53:59.986Z,17.00
2019-03-22T11:56:33.903Z,17.15
2019-03-22T11:59:07.695Z,17.20
2019-03-22T12:01:41.994Z,17.32
2019-03-22T12:04:16.959Z,17.32
2019-03-22T12:06:50.605Z,17.34
2019-03-22T12:09:24.613Z,17.47
2019-03-22T12:12:07.606Z,17.60
2019-03-22T12:14:50.120Z,17.68
2019-03-22T12:17:23.812Z,17.82
2019-03-22T12:20:14.255Z,17.83
2019-03-22T12:23:04.259Z,17.97
2019-03-22T12:25:38.332Z,18.06
2019-03-22T12:28:27.428Z,18.27
2019-03-22T12:31:10.798Z,18.15
2019-03-22T12:33:44.454Z,18.19
2019-03-22T12:36:19.040Z,18.45
2019-03-22T12:39:03.460Z,18.48
2019-03-22T12:41:46.376Z,18.53
2019-03-22T12:44:29.315Z,18.32
2019-03-22T12:47:12.047Z,18.38
2019-03-22T12:49:54.681Z,18.47
2019-03-22T12:52:38.126Z,18.59
2019-03-22T12:55:12.542Z,18.56
2019-03-22T12:57:46.185Z,18.54
2019-03-22T13:00:21.783Z,18.54
2019-03-22T13:03:04.311Z,18.87
2019-03-22T13:05:38.021Z,18.80
2019-03-22T13:08:21.468Z,18.78
2019-03-22T13:10:55.126Z,18.78
2019-03-22T13:13:29.114Z,18.96
2019-03-22T13:16:03.866Z,19.04
2019-03-22T13:18:37.959Z,19.09
2019-03-22T13:21:12.129Z,19.14
2019-03-22T13:23:55.338Z,18.98
2019-03-22T13:26:38.335Z,18.93
2019-03-22T13:29:12.006Z,18.87
2019-03-22T13:31:47.590Z,19.23
2019-03-22T13:34:21.750Z,19.36
2019-03-22T13:37:10.878Z,19.63
2019-03-22T13:39:53.860Z,19.60
2019-03-22T13:42:39.059Z,19.57
2019-03-22T13:45:22.246Z,19.55
2019-03-22T13:47:55.986Z,19.66
2019-03-22T13:50:29.792Z,19.59
2019-03-22T13:53:03.476Z,19.73
2019-03-22T13:55:37.273Z,19.76
2019-03-22T13:58:12.435Z,19.86
2019-03-22T14:00:46.076Z,19.74
2019-03-22T14:03:19.882Z,19.62
2019-03-22T14:05:54.699Z,19.60
2019-03-22T14:08:28.372Z,19.65
2019-03-22T14:11:02.359Z,19.65
2019-03-22T14:13:36.604Z,19.66
2019-03-22T14:16:13.128Z,19.82
2019-03-22T14:18:55.966Z,19.60
2019-03-22T14:21:46.891Z,19.49
2019-03-22T14:24:21.060Z,19.40
2019-03-22T14:26:55.043Z,19.40
2019-03-22T14:29:37.856Z,19.43
2019-03-22T14:32:21.394Z,19.66
2019-03-22T14:34:55.801Z,19.35
2019-03-22T14:37:29.951Z,19.37
2019-03-22T14:40:04.196Z,19.33
2019-03-22T14:42:37.860Z,19.28
2019-03-22T14:45:12.420Z,19.36
2019-03-22T14:47:46.087Z,19.31
2019-03-22T14:50:20.987Z,19.22
2019-03-22T14:53:05.230Z,19.35
2019-03-22T14:55:48.184Z,19.46
2019-03-22T14:58:34.542Z,19.32
2019-03-22T15:01:24.022Z,19.36
2019-03-22T15:03:58.725Z,19.39
2019-03-22T15:06:43.347Z,19.39
2019-03-22T15:09:17.010Z,19.22
2019-03-22T15:11:50.649Z,19.20
2019-03-22T15:14:46.431Z,19.21
2019-03-22T15:17:48.965Z,19.25
2019-03-22T15:20:45.746Z,19.20
2019-03-22T15:23:40.067Z,19.27
2019-03-22T15:26:31.589Z,19.19
2019-03-22T15:29:36.720Z,19.30
2019-03-22T15:32:52.908Z,19.26
2019-03-22T15:35:53.032Z,19.16
2019-03-22T15:38:55.981Z,19.11
2019-03-22T15:41:52.836Z,19.10
2019-03-22T15:44:26.932Z,19.09
2019-03-22T15:47:00.882Z,19.04
2019-03-22T15:49:35.613Z,18.99
2019-03-22T15:52:09.443Z,18.79
2019-03-22T15:54:44.883Z,18.60
2019-03-22T15:57:19.292Z,18.40
2019-03-22T15:59:53.687Z,18.26
2019-03-22T16:02:27.717Z,18.26
2019-03-22T16:05:15.949Z,18.25
2019-03-22T16:08:01.015Z,18.24
2019-03-22T16:10:36.685Z,18.15
2019-03-22T16:13:12.391Z,18.18
2019-03-22T16:15:57.955Z,18.21
2019-03-22T16:18:31.604Z,18.15
2019-03-22T16:21:05.611Z,18.11
2019-03-22T16:23:48.959Z,18.10
2019-03-22T16:26:33.010Z,17.93
2019-03-22T16:29:17.853Z,18.01
2019-03-22T16:31:57.866Z,17.95
2019-03-22T16:34:41.852Z,17.93
2019-03-22T16:37:17.397Z,17.80
2019-03-22T16:40:04.600Z,17.77
2019-03-22T16:42:47.197Z,17.76
2019-03-22T16:45:40.154Z,17.74
2019-03-22T16:48:14.906Z,17.66
2019-03-22T16:51:04.717Z,17.58
2019-03-22T16:53:39.568Z,17.49
2019-03-22T16:56:12.894Z,17.36
2019-03-22T16:58:47.984Z,17.28
2019-03-22T17:01:21.958Z,17.20
2019-03-22T17:04:04.038Z,17.14
2019-03-22T17:06:47.579Z,17.17
2019-03-22T17:09:22.627Z,17.06
2019-03-22T17:12:06.363Z,16.96
2019-03-22T17:14:40.379Z,16.84
2019-03-22T17:17:23.072Z,16.67
2019-03-22T17:20:08.065Z,16.51
2019-03-22T17:22:41.923Z,16.28
2019-03-22T17:25:15.607Z,16.20
2019-03-22T17:27:50.083Z,16.03
2019-03-22T17:30:32.700Z,15.92
2019-03-22T17:33:07.972Z,15.75
2019-03-22T17:35:51.196Z,15.67
2019-03-22T17:38:38.177Z,15.58
2019-03-22T17:41:26.613Z,15.44
2019-03-22T17:44:10.880Z,15.34
2019-03-22T17:46:57.185Z,15.21
2019-03-22T17:49:47.802Z,14.96
2019-03-22T17:52:17.008Z,14.96
2019-03-22T17:55:02.436Z,14.96
2019-03-22T17:57:36.889Z,14.84
2019-03-22T18:00:23.859Z,14.67
2019-03-22T18:03:00.160Z,14.48
2019-03-22T18:05:35.167Z,14.37
2019-03-22T18:08:09.589Z,14.27
2019-03-22T18:10:44.232Z,14.13
2019-03-22T18:13:20.317Z,14.02
2019-03-22T18:16:02.998Z,14.04
2019-03-22T18:18:46.568Z,13.98
2019-03-22T18:21:21.742Z,13.86
2019-03-22T18:24:06.695Z,13.93
2019-03-22T18:26:41.963Z,13.86
2019-03-22T18:29:16.354Z,13.87
2019-03-22T18:31:58.826Z,13.80
2019-03-22T18:34:47.584Z,13.55
2019-03-22T18:37:32.471Z,13.43
2019-03-22T18:40:15.570Z,13.26
2019-03-22T18:42:50.568Z,13.10
2019-03-22T18:45:25.296Z,13.04
2019-03-22T18:47:59.264Z,12.89
2019-03-22T18:50:42.147Z,12.96
2019-03-22T18:53:25.582Z,12.81
2019-03-22T18:56:02.014Z,12.64
2019-03-22T18:58:35.781Z,12.47
2019-03-22T19:01:12.975Z,12.40
2019-03-22T19:03:47.680Z,12.33
2019-03-22T19:06:22.822Z,12.29
2019-03-22T19:08:56.566Z,12.11
2019-03-22T19:11:32.758Z,12.04
2019-03-22T19:14:16.865Z,12.02
2019-03-22T19:16:51.919Z,11.98
2019-03-22T19:19:25.711Z,11.82
2019-03-22T19:21:59.977Z,11.73
2019-03-22T19:24:34.724Z,11.65
2019-03-22T19:27:18.973Z,11.62
2019-03-22T19:29:52.929Z,11.60
2019-03-22T19:32:36.172Z,11.55
2019-03-22T19:35:19.101Z,11.55
2019-03-22T19:38:05.160Z,11.44
2019-03-22T19:40:47.986Z,11.31
2019-03-22T19:43:32.439Z,11.25
2019-03-22T19:46:14.923Z,11.26
2019-03-22T19:48:48.599Z,11.15
2019-03-22T19:51:32.832Z,11.15
2019-03-22T19:54:07.555Z,11.08
2019-03-22T19:56:41.724Z,11.05
2019-03-22T19:59:15.485Z,11.04
2019-03-22T20:02:04.615Z,10.98
2019-03-22T20:04:47.481Z,10.95
2019-03-22T20:07:31.146Z,10.88
2019-03-22T20:10:06.659Z,10.76
2019-03-22T20:12:41.352Z,10.68
2019-03-22T20:15:16.462Z,10.57
2019-03-22T20:17:51.004Z,10.51
2019-03-22T20:20:36.145Z,10.56
2019-03-22T20:23:18.597Z,10.50
2019-03-22T20:25:51.173Z,10.45
2019-03-22T20:28:25.502Z,10.51
2019-03-22T20:31:12.390Z,10.47
2019-03-22T20:33:46.062Z,10.39
2019-03-22T20:36:35.669Z,10.39
2019-03-22T20:39:11.626Z,10.31
2019-03-22T20:41:45.990Z,10.32
2019-03-22T20:44:20.402Z,10.24
2019-03-22T20:46:55.137Z,10.17
2019-03-22T20:49:29.587Z,10.09
2019-03-22T20:52:14.190Z,10.19
2019-03-22T20:55:00.581Z,10.09
2019-03-22T20:57:33.974Z,10.01
2019-03-22T21:00:17.215Z,10.00
2019-03-22T21:02:51.322Z,9.89
2019-03-22T21:05:27.083Z,9.91
2019-03-22T21:08:10.385Z,9.90
2019-03-22T21:10:45.539Z,9.89
2019-03-22T21:13:19.974Z,9.83
2019-03-22T21:15:54.178Z,9.76
2019-03-22T21:18:47.547Z,9.75
2019-03-22T21:21:36.698Z,9.66
2019-03-22T21:24:08.856Z,9.56
2019-03-22T21:26:44.263Z,9.57
2019-03-22T21:29:18.327Z,9.55
2019-03-22T21:32:02.456Z,9.54
2019-03-22T21:34:43.883Z,9.47
2019-03-22T21:37:17.750Z,9.41
2019-03-22T21:39:51.763Z,9.50
2019-03-22T21:42:26.401Z,9.36
2019-03-22T21:45:00.921Z,9.39
2019-03-22T21:47:40.070Z,9.36
2019-03-22T21:50:14.374Z,9.31
2019-03-22T21:52:49.494Z,9.32
2019-03-22T21:55:24.687Z,9.27
2019-03-22T21:57:58.752Z,9.29
2019-03-22T22:00:42.259Z,9.28
2019-03-22T22:03:20.435Z,9.20
2019-03-22T22:06:05.568Z,9.19
2019-03-22T22:08:41.591Z,9.14
2019-03-22T22:11:27.570Z,9.16
2019-03-22T22:14:03.309Z,9.15
2019-03-22T22:16:47.417Z,9.19
2019-03-22T22:19:22.461Z,9.19
2019-03-22T22:21:57.260Z,9.22
2019-03-22T22:24:33.727Z,9.25
2019-03-22T22:27:14.303Z,9.23
2019-03-22T22:29:50.111Z,9.23
2019-03-22T22:32:34.392Z,9.22
2019-03-22T22:35:08.430Z,9.19
2019-03-22T22:37:46.242Z,9.18
2019-03-22T22:40:19.901Z,9.12
2019-03-22T22:42:58.982Z,9.08
2019-03-22T22:45:48.123Z,9.09
2019-03-22T22:48:30.894Z,9.13
2019-03-22T22:51:16.101Z,9.08
2019-03-22T22:53:59.132Z,9.03
2019-03-22T22:56:48.009Z,8.99
2019-03-22T22:59:22.956Z,8.92
2019-03-22T23:02:03.598Z,9.03
2019-03-22T23:04:38.757Z,8.99
2019-03-22T23:07:12.492Z,8.94
2019-03-22T23:09:48.199Z,8.93
2019-03-22T23:12:32.538Z,8.93
2019-03-22T23:15:06.353Z,8.92
2019-03-22T23:17:49.803Z,8.89
2019-03-22T23:20:24.476Z,8.84
2019-03-22T23:23:08.060Z,8.86
2019-03-22T23:25:41.722Z,8.74
2019-03-22T23:28:25.215Z,8.88
2019-03-22T23:30:59.268Z,8.81
2019-03-22T23:33:35.749Z,8.76
2019-03-22T23:36:19.514Z,8.61
2019-03-22T23:38:47.240Z,8.52
2019-03-22T23:41:30.010Z,8.66
2019-03-22T23:44:17.499Z,8.63
2019-03-22T23:46:51.772Z,8.59
2019-03-22T23:49:26.285Z,8.49
2019-03-22T23:52:00.650Z,8.39
2019-03-22T23:54:45.441Z,8.38
2019-03-22T23:57:45.248Z,8.34
